2OI9 weather

Comprix Heliport
Groveport, Ohio, United States

Public forecast

Using degrees Fahrenheit for public forecast. Weather courtesy of forecast.io.

Closest aviation weather report (METAR) to Comprix Heliport

Closest report is Rickenbacker International Airport, 1.8 nm (3.3 km) SSW. Retrieved 2020/07/07 12:55 UTC (11 minutes ago):

KLCK 071255Z AUTO 00000KT 10SM CLR 26/22 A3002 RMK AO2 T02570215

Closest aviation forecast (TAF) to Comprix Heliport

Closest forecast is Rickenbacker International Airport, 1.8 nm (3.3 km) SSW. Retrieved 2020/07/07 12:30 UTC (36 minutes ago):

TAF TAF KLCK 071127Z 0712/0812 00000KT P6SM FEW050 SCT200 FM071500 00000KT P6SM FEW050 FM071900 22005KT P6SM VCTS SCT040CB FM080000 VRB03KT P6SM SCT200